M/V Grande Caribe — WCX4495 — position and weather

sailwx.info

Track history (hours):
 
Tides and Currents Weather Stations Pressure Air Temp Water Temp Dewpoint Dewpoint Depression Visibility Wind Speed Wind Dir Waves Ship Positions

M/V Grande Caribe

Owner: Blount Small Ship Adventures, WARREN, RI. More information available from US FCC via Universal Licensing System and Coast Guard Vessel Documentation Center.

Last reported at 2017-Aug-17 10:57 UTC. Time now 2017-Aug-18 03:01 UTC.
Position N 41°42' W 071°18'.

Length 55 m; draft 2.1 m.

Type: Ship. MMSI: 369023000.

Date/timePositionNaut miles runAvg speedWind from/ knotsBaromVisibWave heightAir tempDewpointWater temp
2017-Aug-17 10:57N 41°42' W 071°18'20 0.4
2017-Aug-15 09:16N 41°25' W 071°04'310.1
2017-Aug-15 09:00N 41°26' W 071°01'510.6
2017-Aug-15 08:30N 41°29' W 070°55'9 7.6
2017-Aug-15 07:18N 41°38' W 070°55'0 0.0
2017-Aug-15 01:33N 41°38' W 070°55'0 0.0
2017-Aug-15 01:15N 41°38' W 070°55'  
2017-Aug-11 18:42N 41°39' W 071°19'210.7
2017-Aug-11 18:30N 41°41' W 071°19'  
2017-Aug-09 11:47N 41°42' W 071°18'48 7.9
2017-Aug-09 05:41N 41°14' W 072°10'211.5
2017-Aug-09 05:28N 41°13' W 072°13'610.6
2017-Aug-09 04:54N 41°12' W 072°21'4 9.7
2017-Aug-09 04:30N 41°11' W 072°25'5 9.9
2017-Aug-09 04:00N 41°10' W 072°32'6 9.8
2017-Aug-09 03:21N 41°08' W 072°40'59 9.8
2017-Aug-08 21:21N 40°48' W 073°53'3 9.2
2017-Aug-08 20:59N 40°46' W 073°57'4 8.2
2017-Aug-08 20:30N 40°42' W 073°59'2 4.6
2017-Aug-08 20:00N 40°42' W 074°02'611.9
2017-Aug-08 19:30N 40°47' W 073°59'713.2
2017-Aug-08 19:00N 40°53' W 073°56'  
Track history (hours):
 
Tides and Currents Weather Stations Pressure Air Temp Water Temp Dewpoint Dewpoint Depression Visibility Wind Speed Wind Dir Waves Ship Positions

M/V Grande Caribe

Owner: Blount Small Ship Adventures, WARREN, RI. More information available from US FCC via Universal Licensing System and Coast Guard Vessel Documentation Center.

Last reported at 2017-Aug-17 10:57 UTC. Time now 2017-Aug-18 03:01 UTC.
Position N 41°42' W 071°18'.

Length 55 m; draft 2.1 m.

Type: Ship. MMSI: 369023000.

Date/timePositionNaut miles runAvg speedWind from/ knotsBaromVisibWave heightAir tempDewpointWater temp
2017-Aug-17 10:57N 41°42' W 071°18'20 0.4
2017-Aug-15 09:16N 41°25' W 071°04'310.1
2017-Aug-15 09:00N 41°26' W 071°01'510.6
2017-Aug-15 08:30N 41°29' W 070°55'9 7.6
2017-Aug-15 07:18N 41°38' W 070°55'0 0.0
2017-Aug-15 01:33N 41°38' W 070°55'0 0.0
2017-Aug-15 01:15N 41°38' W 070°55'  
2017-Aug-11 18:42N 41°39' W 071°19'210.7
2017-Aug-11 18:30N 41°41' W 071°19'  
2017-Aug-09 11:47N 41°42' W 071°18'48 7.9
2017-Aug-09 05:41N 41°14' W 072°10'211.5
2017-Aug-09 05:28N 41°13' W 072°13'610.6
2017-Aug-09 04:54N 41°12' W 072°21'4 9.7
2017-Aug-09 04:30N 41°11' W 072°25'5 9.9
2017-Aug-09 04:00N 41°10' W 072°32'6 9.8
2017-Aug-09 03:21N 41°08' W 072°40'59 9.8
2017-Aug-08 21:21N 40°48' W 073°53'3 9.2
2017-Aug-08 20:59N 40°46' W 073°57'4 8.2
2017-Aug-08 20:30N 40°42' W 073°59'2 4.6
2017-Aug-08 20:00N 40°42' W 074°02'611.9
2017-Aug-08 19:30N 40°47' W 073°59'713.2
2017-Aug-08 19:00N 40°53' W 073°56'  

Dump ship's entire track history